createdAt,value
2023-04-03T00:00:50.735Z,6.24
2023-04-03T00:03:19.125Z,6.22
2023-04-03T00:05:46.496Z,6.24
2023-04-03T00:08:13.287Z,6.13
2023-04-03T00:10:40.119Z,6.01
2023-04-03T00:13:08.062Z,6.06
2023-04-03T00:15:36.027Z,6.06
2023-04-03T00:18:03.916Z,6.04
2023-04-03T00:20:30.854Z,5.89
2023-04-03T00:22:57.577Z,5.79
2023-04-03T00:25:24.402Z,5.93
2023-04-03T00:27:51.410Z,5.90
2023-04-03T00:30:19.794Z,5.82
2023-04-03T00:32:49.106Z,5.86
2023-04-03T00:35:18.922Z,5.96
2023-04-03T00:37:46.062Z,6.02
2023-04-03T00:40:15.400Z,5.93
2023-04-03T00:42:44.243Z,5.93
2023-04-03T00:45:50.496Z,5.79
2023-04-03T00:48:21.695Z,5.86
2023-04-03T00:50:49.274Z,5.81
2023-04-03T00:53:26.499Z,5.80
2023-04-03T00:55:56.148Z,5.90
2023-04-03T00:58:31.869Z,5.66
2023-04-03T01:01:00.881Z,5.68
2023-04-03T01:03:27.759Z,5.67
2023-04-03T01:05:55.721Z,5.55
2023-04-03T01:08:22.714Z,5.61
2023-04-03T01:10:50.354Z,5.68
2023-04-03T01:13:28.125Z,5.51
2023-04-03T01:15:55.584Z,5.57
2023-04-03T01:18:24.877Z,5.57
2023-04-03T01:21:18.935Z,5.42
2023-04-03T01:23:57.376Z,5.56
2023-04-03T01:26:24.959Z,5.45
2023-04-03T01:28:51.918Z,5.43
2023-04-03T01:31:43.134Z,5.55
2023-04-03T01:34:09.948Z,5.33
2023-04-03T01:36:36.784Z,5.41
2023-04-03T01:39:03.848Z,5.39
2023-04-03T01:41:30.979Z,5.39
2023-04-03T01:44:06.483Z,5.34
2023-04-03T01:46:33.389Z,5.41
2023-04-03T01:49:00.284Z,5.25
2023-04-03T01:51:26.937Z,5.27
2023-04-03T01:53:53.688Z,5.24
2023-04-03T01:56:21.226Z,5.12
2023-04-03T01:58:48.884Z,5.04
2023-04-03T02:01:16.660Z,5.18
2023-04-03T02:03:43.447Z,5.17
2023-04-03T02:06:12.602Z,5.05
2023-04-03T02:08:39.714Z,5.13
2023-04-03T02:11:06.947Z,5.10
2023-04-03T02:13:34.071Z,5.04
2023-04-03T02:16:07.707Z,5.08
2023-04-03T02:18:34.444Z,5.11
2023-04-03T02:21:01.106Z,4.93
2023-04-03T02:23:27.774Z,4.83
2023-04-03T02:25:54.522Z,4.97
2023-04-03T02:28:22.821Z,4.88
2023-04-03T02:30:49.558Z,4.55
2023-04-03T02:33:16.560Z,4.50
2023-04-03T02:35:44.196Z,4.69
2023-04-03T02:38:11.451Z,4.77
2023-04-03T02:40:38.708Z,4.55
2023-04-03T02:43:05.597Z,4.48
2023-04-03T02:45:36.990Z,4.56
2023-04-03T02:48:04.860Z,4.45
2023-04-03T02:50:31.599Z,4.42
2023-04-03T02:52:58.384Z,4.42
2023-04-03T02:55:25.140Z,4.41
2023-04-03T02:57:54.984Z,4.21
2023-04-03T03:00:22.326Z,4.02
2023-04-03T03:02:50.410Z,4.16
2023-04-03T03:05:17.433Z,4.14
2023-04-03T03:07:44.168Z,4.08
2023-04-03T03:10:10.844Z,4.02
2023-04-03T03:12:37.497Z,3.99
2023-04-03T03:15:04.404Z,4.13
2023-04-03T03:17:31.204Z,4.23
2023-04-03T03:19:58.013Z,4.18
2023-04-03T03:22:24.759Z,3.96
2023-04-03T03:24:51.585Z,4.01
2023-04-03T03:27:18.386Z,4.01
2023-04-03T03:29:45.217Z,3.98
2023-04-03T03:32:13.971Z,3.99
2023-04-03T03:34:40.876Z,4.24
2023-04-03T03:37:07.639Z,4.28
2023-04-03T03:39:34.843Z,4.13
2023-04-03T03:42:01.550Z,4.05
2023-04-03T03:44:30.090Z,4.12
2023-04-03T03:46:57.465Z,4.14
2023-04-03T03:49:24.417Z,4.19
2023-04-03T03:51:51.783Z,4.18
2023-04-03T03:54:18.541Z,4.29
2023-04-03T03:56:45.411Z,4.25
2023-04-03T03:59:13.192Z,4.09
2023-04-03T04:01:40.914Z,4.21
2023-04-03T04:04:08.278Z,4.17
2023-04-03T04:06:35.241Z,4.13
2023-04-03T04:09:05.237Z,4.26
2023-04-03T04:11:33.428Z,4.32
2023-04-03T04:14:00.736Z,4.27
2023-04-03T04:16:29.625Z,4.28
2023-04-03T04:18:59.550Z,4.27
2023-04-03T04:21:26.862Z,4.45
2023-04-03T04:23:54.348Z,4.27
2023-04-03T04:26:21.461Z,4.24
2023-04-03T04:28:48.392Z,4.16
2023-04-03T04:31:17.142Z,4.12
2023-04-03T04:33:43.815Z,4.15
2023-04-03T04:36:12.892Z,4.10
2023-04-03T04:38:39.710Z,4.12
2023-04-03T04:41:07.176Z,4.08
2023-04-03T04:43:34.445Z,4.09
2023-04-03T04:46:09.137Z,3.90
2023-04-03T04:48:41.837Z,4.07
2023-04-03T04:51:09.527Z,4.10
2023-04-03T04:53:38.635Z,4.07
2023-04-03T04:56:06.156Z,3.98
2023-04-03T04:58:34.486Z,3.90
2023-04-03T05:01:08.645Z,3.82
2023-04-03T05:03:38.989Z,3.86
2023-04-03T05:06:06.239Z,4.06
2023-04-03T05:08:34.414Z,4.15
2023-04-03T05:11:01.527Z,4.07
2023-04-03T05:13:28.826Z,4.13
2023-04-03T05:15:56.621Z,4.16
2023-04-03T05:18:23.773Z,4.16
2023-04-03T05:20:51.702Z,4.10
2023-04-03T05:23:19.856Z,4.17
2023-04-03T05:25:47.961Z,4.11
2023-04-03T05:28:14.913Z,4.15
2023-04-03T05:30:42.106Z,4.26
2023-04-03T05:33:09.382Z,4.16
2023-04-03T05:35:43.631Z,4.17
2023-04-03T05:38:13.688Z,4.30
2023-04-03T05:40:40.878Z,4.25
2023-04-03T05:43:07.876Z,4.33
2023-04-03T05:45:37.758Z,4.08
2023-04-03T05:48:04.913Z,4.21
2023-04-03T05:50:32.406Z,4.50
2023-04-03T05:53:00.352Z,4.38
2023-04-03T05:55:29.823Z,4.34
2023-04-03T05:57:56.593Z,4.42
2023-04-03T06:00:23.533Z,4.50
2023-04-03T06:02:59.480Z,4.69
2023-04-03T06:05:26.381Z,4.73
2023-04-03T06:07:53.483Z,4.55
2023-04-03T06:10:21.433Z,4.54
2023-04-03T06:12:48.675Z,4.73
2023-04-03T06:15:16.518Z,4.71
2023-04-03T06:17:43.389Z,4.45
2023-04-03T06:20:10.669Z,4.57
2023-04-03T06:22:37.432Z,4.50
2023-04-03T06:25:04.754Z,4.44
2023-04-03T06:27:31.484Z,4.29
2023-04-03T06:29:58.218Z,4.56
2023-04-03T06:32:24.972Z,4.84
2023-04-03T06:34:52.196Z,5.26
2023-04-03T06:37:21.751Z,5.68
2023-04-03T06:39:49.322Z,5.75
2023-04-03T06:42:16.221Z,5.61
2023-04-03T06:44:53.521Z,5.87
2023-04-03T06:47:20.678Z,6.03
2023-04-03T06:49:47.661Z,5.94
2023-04-03T06:52:14.477Z,6.02
2023-04-03T06:54:41.605Z,5.89
2023-04-03T06:57:08.887Z,6.18
2023-04-03T06:59:37.336Z,6.18
2023-04-03T07:02:04.045Z,6.20
2023-04-03T07:04:30.908Z,6.34
2023-04-03T07:06:57.609Z,6.47
2023-04-03T07:09:24.243Z,6.10
2023-04-03T07:11:51.008Z,6.24
2023-04-03T07:14:17.637Z,6.40
2023-04-03T07:16:44.284Z,6.81
2023-04-03T07:19:11.940Z,6.61
2023-04-03T07:21:38.853Z,6.72
2023-04-03T07:24:05.717Z,6.68
2023-04-03T07:26:32.526Z,6.68
2023-04-03T07:28:59.445Z,6.79
2023-04-03T07:31:26.337Z,6.94
2023-04-03T07:33:53.437Z,7.25
2023-04-03T07:36:23.173Z,7.44
2023-04-03T07:38:50.181Z,7.94
2023-04-03T07:41:19.491Z,7.90
2023-04-03T07:43:46.359Z,7.52
2023-04-03T07:46:13.208Z,7.38
2023-04-03T07:48:39.998Z,7.65
2023-04-03T07:51:06.764Z,7.51
2023-04-03T07:53:33.959Z,7.51
2023-04-03T07:56:01.018Z,7.78
2023-04-03T07:58:27.782Z,8.02
2023-04-03T08:00:54.556Z,7.80
2023-04-03T08:03:21.428Z,7.97
2023-04-03T08:05:50.060Z,8.40
2023-04-03T08:08:21.574Z,8.36
2023-04-03T08:10:55.563Z,8.15
2023-04-03T08:13:23.084Z,7.96
2023-04-03T08:15:49.901Z,8.37
2023-04-03T08:18:16.994Z,8.47
2023-04-03T08:20:43.998Z,8.66
2023-04-03T08:23:11.337Z,8.89
2023-04-03T08:25:42.566Z,9.02
2023-04-03T08:28:10.886Z,8.80
2023-04-03T08:30:40.931Z,8.74
2023-04-03T08:33:08.254Z,8.98
2023-04-03T08:35:40.640Z,9.04
2023-04-03T08:38:08.524Z,8.87
2023-04-03T08:40:35.824Z,8.47
2023-04-03T08:43:28.622Z,8.27
2023-04-03T08:45:58.492Z,8.60
2023-04-03T08:48:31.728Z,8.53
2023-04-03T08:51:03.714Z,8.45
2023-04-03T08:53:34.579Z,8.57
2023-04-03T08:56:07.673Z,8.84
2023-04-03T08:58:46.669Z,9.34
2023-04-03T09:01:22.520Z,9.50
2023-04-03T09:03:49.300Z,9.85
2023-04-03T09:06:20.614Z,9.57
2023-04-03T09:09:12.302Z,10.02
2023-04-03T09:11:48.298Z,10.35
2023-04-03T09:14:24.462Z,10.65
2023-04-03T09:16:53.989Z,10.69
2023-04-03T09:19:33.142Z,10.56
2023-04-03T09:22:18.623Z,10.63
2023-04-03T09:24:51.051Z,10.89
2023-04-03T09:27:17.726Z,10.92
2023-04-03T09:29:47.096Z,10.87
2023-04-03T09:32:23.262Z,10.77
2023-04-03T09:34:51.735Z,11.06
2023-04-03T09:37:43.720Z,10.52
2023-04-03T09:40:36.887Z,10.41
2023-04-03T09:43:21.847Z,10.48
2023-04-03T09:45:49.510Z,10.66
2023-04-03T09:48:18.832Z,10.46
2023-04-03T09:50:52.183Z,10.40
2023-04-03T09:53:31.792Z,10.69
2023-04-03T09:55:59.232Z,11.06
2023-04-03T09:58:48.974Z,11.19
2023-04-03T10:01:31.405Z,10.86
2023-04-03T10:04:08.923Z,10.78
2023-04-03T10:06:48.120Z,10.62
2023-04-03T10:09:34.111Z,10.43
2023-04-03T10:12:13.104Z,10.82
2023-04-03T10:14:52.220Z,10.83
2023-04-03T10:17:30.057Z,10.80
2023-04-03T10:20:03.777Z,10.50
2023-04-03T10:22:57.094Z,10.20
2023-04-03T10:25:30.270Z,9.90
2023-04-03T10:28:09.555Z,9.80
2023-04-03T10:31:26.377Z,10.32
2023-04-03T10:34:05.702Z,10.57
2023-04-03T10:36:42.817Z,9.82
2023-04-03T10:39:20.939Z,9.35
2023-04-03T10:42:09.347Z,10.01
2023-04-03T10:45:07.951Z,10.10
2023-04-03T10:48:00.634Z,10.59
2023-04-03T10:50:52.687Z,9.87
2023-04-03T10:53:49.974Z,9.63
2023-04-03T10:56:23.345Z,9.71
2023-04-03T10:58:55.740Z,9.96
2023-04-03T11:01:29.672Z,10.01
2023-04-03T11:04:00.193Z,10.34
2023-04-03T11:06:37.621Z,10.10
2023-04-03T11:09:16.404Z,10.30
2023-04-03T11:11:44.061Z,10.53
2023-04-03T11:14:27.171Z,10.67
2023-04-03T11:17:05.046Z,10.74
2023-04-03T11:19:49.810Z,10.77
2023-04-03T11:22:31.595Z,10.75
2023-04-03T11:25:06.802Z,10.71
2023-04-03T11:27:44.616Z,10.42
2023-04-03T11:30:20.561Z,9.95
2023-04-03T11:33:02.892Z,10.00
2023-04-03T11:35:31.226Z,10.21
2023-04-03T11:38:00.946Z,10.01
2023-04-03T11:40:35.543Z,10.22
2023-04-03T11:43:08.281Z,10.30
2023-04-03T11:45:55.793Z,10.32
2023-04-03T11:48:29.265Z,10.10
2023-04-03T11:50:57.708Z,10.34
2023-04-03T11:53:40.156Z,10.35
2023-04-03T11:56:25.096Z,10.08
2023-04-03T11:59:17.856Z,10.00
2023-04-03T12:01:46.144Z,10.20
2023-04-03T12:04:17.919Z,10.33
2023-04-03T12:06:47.870Z,10.44
2023-04-03T12:09:29.678Z,10.17
2023-04-03T12:11:58.295Z,10.47
2023-04-03T12:14:28.238Z,10.27
2023-04-03T12:16:58.702Z,10.30
2023-04-03T12:19:41.157Z,10.51
2023-04-03T12:22:12.078Z,10.30
2023-04-03T12:24:41.938Z,10.33
2023-04-03T12:27:25.557Z,10.85
2023-04-03T12:30:02.341Z,11.04
2023-04-03T12:32:42.259Z,10.77
2023-04-03T12:35:29.719Z,10.69
2023-04-03T12:38:41.430Z,10.42
2023-04-03T12:41:28.362Z,10.38
2023-04-03T12:44:07.409Z,9.97
2023-04-03T12:46:44.228Z,9.78
2023-04-03T12:49:29.830Z,10.16
2023-04-03T12:51:56.874Z,10.20
2023-04-03T12:54:30.497Z,10.09
2023-04-03T12:57:20.952Z,10.38
2023-04-03T12:59:48.335Z,10.25
2023-04-03T13:02:34.400Z,10.23
2023-04-03T13:05:08.644Z,10.04
2023-04-03T13:07:39.771Z,10.00
2023-04-03T13:10:09.695Z,9.62
2023-04-03T13:12:53.208Z,9.50
2023-04-03T13:15:23.671Z,9.45
2023-04-03T13:17:52.537Z,9.51
2023-04-03T13:20:26.897Z,9.38
2023-04-03T13:23:00.992Z,9.52
2023-04-03T13:25:32.177Z,9.29
2023-04-03T13:28:12.773Z,9.04
2023-04-03T13:30:42.048Z,9.23
2023-04-03T13:33:25.841Z,9.08
2023-04-03T13:35:59.948Z,9.15
2023-04-03T13:38:32.401Z,9.64
2023-04-03T13:41:06.153Z,10.11
2023-04-03T13:43:36.213Z,9.67
2023-04-03T13:46:11.910Z,9.67
2023-04-03T13:48:43.261Z,9.38
2023-04-03T13:51:09.809Z,9.48
2023-04-03T13:53:54.746Z,9.65
2023-04-03T13:56:33.203Z,9.94
2023-04-03T13:59:16.983Z,9.87
2023-04-03T14:01:49.486Z,9.88
2023-04-03T14:04:21.352Z,9.62
2023-04-03T14:06:48.981Z,9.39
2023-04-03T14:09:17.261Z,9.64
2023-04-03T14:11:44.703Z,9.84
2023-04-03T14:14:16.655Z,10.21
2023-04-03T14:16:47.502Z,10.20
2023-04-03T14:19:41.330Z,10.66
2023-04-03T14:22:24.258Z,11.07
2023-04-03T14:24:52.382Z,10.87
2023-04-03T14:27:26.409Z,10.84
2023-04-03T14:29:54.626Z,10.46
2023-04-03T14:32:23.819Z,9.90
2023-04-03T14:34:51.947Z,9.83
2023-04-03T14:37:23.390Z,10.29
2023-04-03T14:39:51.511Z,10.67
2023-04-03T14:42:23.929Z,10.89
2023-04-03T14:44:51.315Z,10.99
2023-04-03T14:47:30.426Z,11.19
2023-04-03T14:49:59.810Z,11.00
2023-04-03T14:52:30.960Z,11.31
2023-04-03T14:54:57.902Z,11.78
2023-04-03T14:57:27.294Z,11.87
2023-04-03T14:59:54.112Z,11.92
2023-04-03T15:02:33.174Z,11.70
2023-04-03T15:05:03.922Z,11.41
2023-04-03T15:07:34.262Z,11.72
2023-04-03T15:10:07.756Z,11.91
2023-04-03T15:12:34.390Z,11.70
2023-04-03T15:15:03.580Z,11.53
2023-04-03T15:17:30.891Z,11.47
2023-04-03T15:19:59.089Z,11.21
2023-04-03T15:22:25.804Z,11.12
2023-04-03T15:24:52.771Z,10.60
2023-04-03T15:27:19.625Z,10.40
2023-04-03T15:29:46.531Z,10.18
2023-04-03T15:32:13.590Z,10.21
2023-04-03T15:34:41.025Z,10.19
2023-04-03T15:37:07.800Z,10.07
2023-04-03T15:39:34.552Z,9.83
2023-04-03T15:42:06.840Z,9.71
2023-04-03T15:44:35.492Z,9.74
2023-04-03T15:47:03.319Z,9.68
2023-04-03T15:49:30.851Z,9.62
2023-04-03T15:51:57.491Z,9.69
2023-04-03T15:54:25.664Z,9.67
2023-04-03T15:56:53.354Z,9.55
2023-04-03T15:59:20.038Z,9.53
2023-04-03T16:01:47.557Z,9.58
2023-04-03T16:04:15.672Z,9.93
2023-04-03T16:06:43.403Z,10.01
2023-04-03T16:09:10.997Z,10.02
2023-04-03T16:11:41.163Z,10.03
2023-04-03T16:14:09.430Z,9.78
2023-04-03T16:16:37.076Z,9.71
2023-04-03T16:19:05.539Z,9.76
2023-04-03T16:21:33.550Z,9.85
2023-04-03T16:24:02.293Z,9.87
2023-04-03T16:26:29.991Z,9.71
2023-04-03T16:28:56.841Z,9.69
2023-04-03T16:31:26.312Z,9.57
2023-04-03T16:33:53.182Z,9.45
2023-04-03T16:36:19.903Z,9.28
2023-04-03T16:38:46.517Z,9.13
2023-04-03T16:41:13.172Z,9.33
2023-04-03T16:43:39.791Z,9.27
2023-04-03T16:46:06.607Z,9.18
2023-04-03T16:48:33.413Z,9.28
2023-04-03T16:51:00.355Z,9.44
2023-04-03T16:53:27.900Z,9.27
2023-04-03T16:55:55.648Z,9.38
2023-04-03T16:58:23.576Z,9.41
2023-04-03T17:00:50.982Z,9.36
2023-04-03T17:03:18.016Z,9.35
2023-04-03T17:05:48.152Z,9.18
2023-04-03T17:08:15.184Z,9.36
2023-04-03T17:10:41.823Z,9.26
2023-04-03T17:13:09.173Z,9.36
2023-04-03T17:15:36.324Z,9.15
2023-04-03T17:18:03.057Z,9.05
2023-04-03T17:20:30.761Z,9.26
2023-04-03T17:22:57.441Z,9.07
2023-04-03T17:25:24.152Z,8.91
2023-04-03T17:27:50.755Z,9.00
2023-04-03T17:30:17.571Z,8.97
2023-04-03T17:32:44.418Z,8.78
2023-04-03T17:35:11.967Z,8.87
2023-04-03T17:37:38.842Z,8.94
2023-04-03T17:40:06.843Z,8.95
2023-04-03T17:42:33.607Z,8.90
2023-04-03T17:45:01.296Z,8.90
2023-04-03T17:47:28.084Z,8.87
2023-04-03T17:49:54.826Z,8.82
2023-04-03T17:52:25.267Z,8.92
2023-04-03T17:54:51.919Z,8.89
2023-04-03T17:57:18.806Z,8.64
2023-04-03T17:59:45.668Z,8.68
2023-04-03T18:02:12.480Z,8.80
2023-04-03T18:04:39.186Z,8.69
2023-04-03T18:07:09.672Z,8.76
2023-04-03T18:09:38.013Z,8.36
2023-04-03T18:12:06.993Z,8.41
2023-04-03T18:14:37.276Z,8.22
2023-04-03T18:17:04.215Z,8.22
2023-04-03T18:19:31.002Z,8.14
2023-04-03T18:22:04.793Z,8.14
2023-04-03T18:24:34.209Z,8.20
2023-04-03T18:27:06.237Z,8.33
2023-04-03T18:29:36.266Z,8.10
2023-04-03T18:32:06.660Z,8.07
2023-04-03T18:34:33.547Z,7.92
2023-04-03T18:37:00.283Z,7.94
2023-04-03T18:39:27.159Z,7.86
2023-04-03T18:41:54.984Z,7.89
2023-04-03T18:44:24.764Z,7.81
2023-04-03T18:46:53.780Z,7.87
2023-04-03T18:49:21.051Z,7.83
2023-04-03T18:51:48.155Z,7.59
2023-04-03T18:54:14.913Z,7.80
2023-04-03T18:56:41.722Z,7.81
2023-04-03T18:59:08.528Z,7.56
2023-04-03T19:01:35.842Z,7.51
2023-04-03T19:04:03.087Z,7.55
2023-04-03T19:06:29.913Z,7.70
2023-04-03T19:08:56.712Z,8.04
2023-04-03T19:11:23.494Z,7.96
2023-04-03T19:16:20.236Z,8.15
2023-04-03T19:18:46.944Z,8.08
2023-04-03T19:21:17.648Z,7.99
2023-04-03T19:23:49.478Z,7.81
2023-04-03T19:26:17.108Z,7.82
2023-04-03T19:28:44.263Z,7.84
2023-04-03T19:31:16.695Z,7.73
2023-04-03T19:33:45.004Z,7.66
2023-04-03T19:36:12.368Z,7.58
2023-04-03T19:38:39.700Z,7.43
2023-04-03T19:41:11.413Z,7.40
2023-04-03T19:43:38.839Z,7.41
2023-04-03T19:46:07.203Z,7.35
2023-04-03T19:48:36.198Z,7.19
2023-04-03T19:51:04.736Z,7.34
2023-04-03T19:53:31.994Z,7.30
2023-04-03T19:55:58.958Z,7.16
2023-04-03T19:58:29.770Z,7.23
2023-04-03T20:00:58.092Z,7.14
2023-04-03T20:03:26.223Z,7.06
2023-04-03T20:05:54.552Z,7.05
2023-04-03T20:08:21.712Z,7.02
2023-04-03T20:10:48.998Z,6.99
2023-04-03T20:13:16.161Z,6.97
2023-04-03T20:15:44.963Z,6.96
2023-04-03T20:18:18.997Z,6.96
2023-04-03T20:20:57.187Z,6.98
2023-04-03T20:23:24.815Z,7.00
2023-04-03T20:26:02.010Z,6.81
2023-04-03T20:28:38.011Z,6.88
2023-04-03T20:31:06.472Z,6.76
2023-04-03T20:33:33.817Z,6.86
2023-04-03T20:36:01.610Z,6.90
2023-04-03T20:38:28.622Z,6.85
2023-04-03T20:40:55.861Z,6.74
2023-04-03T20:43:23.630Z,6.74
2023-04-03T20:45:50.904Z,6.71
2023-04-03T20:48:18.641Z,6.62
2023-04-03T20:50:46.653Z,6.46
2023-04-03T20:53:17.945Z,6.46
2023-04-03T20:55:59.844Z,6.49
2023-04-03T20:58:33.387Z,6.48
2023-04-03T21:01:00.830Z,6.31
2023-04-03T21:03:30.346Z,6.29
2023-04-03T21:06:00.206Z,6.34
2023-04-03T21:09:05.269Z,6.33
2023-04-03T21:12:09.134Z,6.32
2023-04-03T21:15:13.771Z,6.30
2023-04-03T21:18:08.655Z,6.39
2023-04-03T21:20:35.343Z,6.36
2023-04-03T21:23:02.020Z,6.30
2023-04-03T21:25:29.410Z,6.28
2023-04-03T21:27:56.598Z,6.29
2023-04-03T21:30:23.248Z,6.20
2023-04-03T21:32:49.973Z,6.25
2023-04-03T21:35:16.635Z,6.22
2023-04-03T21:37:43.599Z,6.19
2023-04-03T21:40:10.477Z,5.99
2023-04-03T21:42:37.307Z,6.09
2023-04-03T21:45:04.272Z,6.19
2023-04-03T21:47:30.918Z,6.16
2023-04-03T21:49:57.569Z,6.12
2023-04-03T21:52:24.389Z,6.03
2023-04-03T21:54:53.246Z,6.04
2023-04-03T21:57:21.093Z,6.00
2023-04-03T21:59:48.989Z,5.86
2023-04-03T22:02:15.883Z,5.85
2023-04-03T22:04:42.538Z,5.79
2023-04-03T22:07:09.576Z,5.69
2023-04-03T22:09:36.515Z,5.50
2023-04-03T22:12:04.657Z,5.60
2023-04-03T22:14:31.284Z,5.38
2023-04-03T22:16:58.098Z,5.26
2023-04-03T22:19:25.264Z,5.21
2023-04-03T22:21:52.728Z,5.33
2023-04-03T22:24:20.292Z,5.30
2023-04-03T22:26:48.567Z,5.06
2023-04-03T22:29:15.771Z,5.02
2023-04-03T22:31:42.582Z,5.04
2023-04-03T22:34:09.230Z,4.88
2023-04-03T22:36:36.844Z,5.07
2023-04-03T22:39:05.894Z,5.00
2023-04-03T22:41:33.658Z,4.96
2023-04-03T22:44:00.454Z,4.89
2023-04-03T22:46:28.161Z,4.94
2023-04-03T22:48:55.094Z,4.93
2023-04-03T22:51:21.789Z,4.83
2023-04-03T22:53:48.406Z,4.83
2023-04-03T22:56:15.170Z,4.90
2023-04-03T22:58:42.170Z,4.88
2023-04-03T23:01:11.344Z,4.80
2023-04-03T23:03:40.237Z,4.78
2023-04-03T23:06:08.336Z,4.76
2023-04-03T23:08:37.805Z,4.67
2023-04-03T23:11:06.897Z,4.89
2023-04-03T23:13:33.785Z,4.72
2023-04-03T23:16:01.775Z,4.61
2023-04-03T23:18:30.077Z,4.69
2023-04-03T23:20:58.700Z,4.69
2023-04-03T23:23:25.656Z,4.71
2023-04-03T23:26:02.553Z,4.75
2023-04-03T23:28:29.870Z,4.63
2023-04-03T23:31:01.468Z,4.55
2023-04-03T23:33:30.589Z,4.69
2023-04-03T23:35:58.634Z,4.69
2023-04-03T23:38:25.756Z,4.55
2023-04-03T23:40:52.520Z,4.71
2023-04-03T23:43:19.179Z,4.56
2023-04-03T23:45:45.938Z,4.53
2023-04-03T23:48:12.650Z,4.38
2023-04-03T23:50:39.554Z,4.58
2023-04-03T23:53:06.451Z,4.45
2023-04-03T23:55:33.118Z,4.48
2023-04-03T23:57:59.991Z,4.51
